Time;durP1;ratioP1;P1;durP2;ratioP2;P2;SDS_P1;SDS_P2;PMS_P1;PMS_P2;Temp;Humidity;BMP_temperature;BMP_pressure;BME280_temperature;BME280_humidity;BME280_pressure;Samples;Min_cycle;Max_cycle;Signal;HPM_P1;HPM_P2
2021/12/03 00:00:29;;;;;;;4.18;2.35;;;29.50;99.90;;;;;;5047763;28;20221;-76
2021/12/03 00:03:00;;;;;;;4.75;2.40;;;29.60;99.90;;;;;;5049966;28;20200;-76
2021/12/03 00:05:30;;;;;;;4.35;2.25;;;29.70;99.90;;;;;;5051394;28;20243;-76
2021/12/03 00:08:03;;;;;;;5.32;2.15;;;29.80;99.90;;;;;;5050945;28;20207;-76
2021/12/03 00:10:35;;;;;;;5.13;2.60;;;29.90;99.90;;;;;;5051948;28;20193;-76
2021/12/03 00:13:07;;;;;;;6.65;2.53;;;29.90;99.90;;;;;;5050968;28;20575;-76
2021/12/03 01:43:21;;;;;;;15.52;6.10;;;24.70;99.90;;;;;;5110336;27;20574;-77
2021/12/03 01:45:53;;;;;;;16.13;5.72;;;24.60;99.90;;;;;;5104804;28;20187;-78
2021/12/03 01:48:24;;;;;;;15.25;6.45;;;24.50;99.90;;;;;;5102831;27;20236;-76
2021/12/03 01:50:56;;;;;;;18.55;6.30;;;24.60;99.90;;;;;;5095550;28;20202;-76
2021/12/03 01:53:28;;;;;;;18.02;5.82;;;24.70;99.90;;;;;;5097868;28;20193;-76
2021/12/03 01:56:02;;;;;;;23.20;6.43;;;24.60;99.90;;;;;;5090211;28;20192;-78
2021/12/03 01:58:35;;;;;;;16.33;6.75;;;24.60;99.90;;;;;;5091773;28;20237;-77
2021/12/03 02:01:09;;;;;;;17.02;7.03;;;24.70;99.90;;;;;;5101888;28;20207;-77
2021/12/03 02:03:42;;;;;;;17.63;7.05;;;24.60;99.90;;;;;;5093403;28;20192;-77
2021/12/03 02:06:15;;;;;;;17.75;7.60;;;24.50;99.90;;;;;;5101382;28;20194;-77
2021/12/03 02:08:46;;;;;;;19.48;8.00;;;24.50;99.90;;;;;;5089854;28;20544;-77
2021/12/03 02:11:17;;;;;;;18.48;7.05;;;24.60;99.90;;;;;;5093380;28;20660;-77
2021/12/03 02:13:50;;;;;;;19.05;7.28;;;24.60;99.90;;;;;;5101602;28;20184;-77
2021/12/03 02:16:23;;;;;;;20.58;8.80;;;24.70;99.90;;;;;;5092947;28;20547;-77
2021/12/03 02:18:54;;;;;;;18.73;7.63;;;24.60;99.90;;;;;;5089672;28;20196;-77
2021/12/03 02:21:26;;;;;;;21.15;7.60;;;24.60;99.90;;;;;;5097705;28;20290;-77
2021/12/03 02:23:58;;;;;;;18.25;7.70;;;24.50;99.90;;;;;;5098861;28;20180;-77
2021/12/03 02:26:29;;;;;;;18.73;7.20;;;24.50;99.90;;;;;;5097623;28;20198;-78
2021/12/03 02:29:00;;;;;;;18.15;7.30;;;24.50;99.90;;;;;;5098327;28;20184;-79
2021/12/03 02:31:31;;;;;;;20.45;7.75;;;24.40;99.90;;;;;;5089199;28;20197;-77
2021/12/03 02:34:01;;;;;;;17.17;8.23;;;24.30;99.90;;;;;;5094028;28;20200;-76
2021/12/03 02:36:34;;;;;;;18.08;9.38;;;24.30;99.90;;;;;;5094611;28;20185;-77
2021/12/03 02:39:05;;;;;;;18.85;10.00;;;24.10;99.90;;;;;;5097777;28;20226;-78
2021/12/03 02:41:36;;;;;;;18.10;9.02;;;24.10;99.90;;;;;;5091477;28;20232;-77
2021/12/03 02:44:07;;;;;;;20.20;8.85;;;24.00;99.90;;;;;;5088600;28;20223;-76
2021/12/03 02:46:38;;;;;;;21.25;8.43;;;24.00;99.90;;;;;;5094352;28;20242;-75
2021/12/03 02:49:13;;;;;;;15.90;7.07;;;24.10;99.90;;;;;;5090647;28;20696;-76
2021/12/03 02:51:46;;;;;;;20.08;8.63;;;24.20;99.90;;;;;;5088921;28;20188;-78
2021/12/03 02:54:17;;;;;;;23.48;9.25;;;24.20;99.90;;;;;;5083369;28;20644;-77
2021/12/03 02:56:48;;;;;;;26.67;8.70;;;24.00;99.90;;;;;;5094755;28;20189;-77
2021/12/03 02:59:19;;;;;;;21.55;8.85;;;24.00;99.90;;;;;;5080052;28;20185;-77
2021/12/03 03:01:49;;;;;;;20.20;9.18;;;24.00;99.90;;;;;;5075098;28;20221;-76
2021/12/03 03:04:20;;;;;;;23.88;8.88;;;23.90;99.90;;;;;;5075298;28;20193;-78
2021/12/03 03:06:53;;;;;;;21.15;8.85;;;23.70;99.90;;;;;;5077636;28;20189;-78
2021/12/03 03:09:24;;;;;;;24.73;9.05;;;23.80;99.90;;;;;;5075463;28;20644;-78
2021/12/03 03:11:55;;;;;;;22.40;9.38;;;23.90;99.90;;;;;;5079259;28;20191;-78
2021/12/03 03:14:25;;;;;;;22.85;9.18;;;23.80;99.90;;;;;;5075253;28;20196;-77
2021/12/03 03:16:57;;;;;;;21.20;9.15;;;23.60;99.90;;;;;;5084011;28;20238;-76
2021/12/03 03:19:28;;;;;;;25.15;9.63;;;23.70;99.90;;;;;;5077953;28;20191;-77
2021/12/03 03:22:00;;;;;;;23.02;9.27;;;23.80;99.90;;;;;;5082204;28;20223;-77
2021/12/03 03:24:31;;;;;;;25.15;10.30;;;23.60;99.90;;;;;;5085967;28;20188;-77
2021/12/03 03:27:02;;;;;;;23.65;9.23;;;23.60;99.90;;;;;;5073912;28;20201;-77
2021/12/03 03:29:33;;;;;;;28.85;11.15;;;23.40;99.90;;;;;;5073224;28;20196;-77
2021/12/03 03:32:04;;;;;;;27.63;10.68;;;23.30;99.90;;;;;;5073178;28;20246;-75
2021/12/03 03:34:35;;;;;;;25.67;10.00;;;23.30;99.90;;;;;;5073731;28;20185;-77
2021/12/03 03:37:08;;;;;;;27.67;9.63;;;23.40;99.90;;;;;;5084738;28;20192;-77
2021/12/03 03:39:43;;;;;;;29.85;10.13;;;23.40;99.90;;;;;;5080486;28;20199;-76
2021/12/03 03:42:17;;;;;;;31.27;9.48;;;23.40;99.90;;;;;;5088211;28;20271;-78
2021/12/03 03:44:48;;;;;;;28.60;9.50;;;23.30;99.90;;;;;;5081498;28;20192;-77
2021/12/03 03:47:18;;;;;;;27.10;10.73;;;23.30;99.90;;;;;;5075742;28;20278;-77
2021/12/03 03:49:49;;;;;;;21.50;9.73;;;23.30;99.90;;;;;;5090942;28;20195;-77
2021/12/03 03:52:22;;;;;;;28.85;10.23;;;23.20;99.90;;;;;;5090550;28;20188;-76
2021/12/03 03:54:53;;;;;;;25.23;9.90;;;23.20;99.90;;;;;;5094442;28;20188;-77
2021/12/03 03:57:24;;;;;;;26.90;10.07;;;23.10;99.90;;;;;;5085593;28;20184;-78
2021/12/03 03:59:55;;;;;;;28.00;9.95;;;23.00;99.90;;;;;;5075816;28;20189;-77
2021/12/03 04:02:25;;;;;;;28.52;10.00;;;22.80;99.90;;;;;;5080791;28;20215;-77
2021/12/03 04:04:56;;;;;;;28.85;10.73;;;22.90;99.90;;;;;;5086132;28;20242;-80
2021/12/03 04:07:29;;;;;;;30.42;10.05;;;22.80;99.90;;;;;;5082318;28;20185;-79
2021/12/03 04:09:59;;;;;;;26.00;9.30;;;22.60;99.90;;;;;;5081467;28;20188;-80
2021/12/03 04:12:30;;;;;;;28.10;10.57;;;22.30;99.90;;;;;;5087404;28;20191;-77
2021/12/03 04:15:01;;;;;;;25.38;9.95;;;22.20;99.90;;;;;;5078699;28;20188;-79
2021/12/03 04:17:32;;;;;;;26.77;9.45;;;22.00;99.90;;;;;;5082570;28;20559;-80
2021/12/03 04:20:02;;;;;;;29.15;9.88;;;21.80;99.90;;;;;;5087911;28;20652;-80
2021/12/03 04:22:35;;;;;;;28.00;9.57;;;21.60;99.90;;;;;;5074689;28;20225;-79
2021/12/03 04:25:08;;;;;;;24.90;9.52;;;21.40;99.90;;;;;;5074076;28;20195;-78
2021/12/03 04:27:39;;;;;;;26.33;9.77;;;21.40;99.90;;;;;;5079750;28;20181;-79
2021/12/03 04:30:13;;;;;;;25.05;10.00;;;21.20;99.90;;;;;;5074383;28;20207;-78
2021/12/03 04:32:44;;;;;;;30.02;9.85;;;21.20;99.90;;;;;;5079666;28;20275;-79
2021/12/03 04:35:15;;;;;;;31.83;9.95;;;21.10;99.90;;;;;;5076915;28;20590;-80
2021/12/03 04:37:48;;;;;;;30.73;9.68;;;21.00;99.90;;;;;;5092831;28;20184;-79
2021/12/03 04:40:20;;;;;;;31.02;10.65;;;21.00;99.90;;;;;;5081832;28;20196;-79
2021/12/03 04:42:52;;;;;;;26.92;10.05;;;21.00;99.90;;;;;;5073548;28;20237;-79
2021/12/03 04:45:26;;;;;;;29.17;9.38;;;21.00;99.90;;;;;;5083808;28;20196;-78
2021/12/03 04:47:58;;;;;;;32.00;9.65;;;21.00;99.90;;;;;;5087399;28;20237;-79
2021/12/03 04:50:30;;;;;;;28.60;9.13;;;20.90;99.90;;;;;;5080132;28;20204;-79
2021/12/03 04:53:03;;;;;;;35.67;10.07;;;20.80;99.90;;;;;;5073353;28;20196;-78
2021/12/03 04:55:34;;;;;;;41.58;10.20;;;20.80;99.90;;;;;;5080949;28;20229;-77
2021/12/03 04:58:05;;;;;;;27.05;9.00;;;20.90;99.90;;;;;;5081779;28;20196;-78
2021/12/03 05:00:38;;;;;;;133.57;13.98;;;20.90;99.90;;;;;;5076223;28;20189;-77
2021/12/03 05:03:09;;;;;;;40.88;9.60;;;20.90;99.90;;;;;;5087668;28;20216;-78
2021/12/03 05:05:44;;;;;;;29.60;9.30;;;20.90;99.90;;;;;;5080576;28;20196;-77
2021/12/03 05:08:18;;;;;;;31.90;8.77;;;20.90;99.90;;;;;;5083359;28;20195;-76
2021/12/03 05:10:48;;;;;;;30.13;9.75;;;20.80;99.90;;;;;;5079380;28;20593;-78
2021/12/03 05:13:20;;;;;;;29.38;9.63;;;20.70;99.90;;;;;;5075468;28;20196;-77
2021/12/03 05:15:51;;;;;;;30.52;10.45;;;20.70;99.90;;;;;;5083977;28;20195;-76
2021/12/03 05:18:23;;;;;;;34.90;10.98;;;20.70;99.90;;;;;;5079608;28;20196;-76
2021/12/03 05:21:01;;;;;;;26.15;9.40;;;20.80;99.90;;;;;;5087847;28;20192;-78
2021/12/03 05:23:34;;;;;;;27.60;10.13;;;20.70;99.90;;;;;;5080646;28;20602;-77
2021/12/03 05:26:06;;;;;;;29.55;8.75;;;20.80;99.90;;;;;;5082298;28;20666;-78
2021/12/03 05:28:37;;;;;;;25.67;8.38;;;20.80;99.90;;;;;;5073950;28;20192;-77
2021/12/03 05:31:07;;;;;;;31.73;9.32;;;20.80;99.90;;;;;;5077341;28;20185;-76
2021/12/03 05:33:40;;;;;;;24.40;8.00;;;20.80;99.90;;;;;;5073689;28;20192;-75
2021/12/03 05:36:14;;;;;;;29.10;9.07;;;20.80;99.90;;;;;;5079052;28;20193;-77
2021/12/03 05:38:47;;;;;;;33.67;9.05;;;20.90;99.90;;;;;;5086723;28;20210;-77
2021/12/03 05:41:18;;;;;;;27.17;8.02;;;21.00;99.90;;;;;;5076172;28;20228;-77
2021/12/03 05:43:48;;;;;;;32.83;8.43;;;20.90;99.90;;;;;;5078321;28;20219;-76
2021/12/03 05:46:22;;;;;;;30.70;8.32;;;21.00;99.90;;;;;;5079304;28;20220;-77
2021/12/03 05:48:53;;;;;;;29.45;7.45;;;21.00;99.90;;;;;;5072876;28;20193;-76
2021/12/03 05:51:25;;;;;;;25.42;7.50;;;20.90;99.90;;;;;;5075559;28;20192;-76
2021/12/03 05:53:57;;;;;;;28.58;8.30;;;20.90;99.90;;;;;;5079362;28;20256;-75
2021/12/03 05:56:28;;;;;;;31.75;7.75;;;20.80;99.90;;;;;;5076855;28;20184;-75
2021/12/03 05:58:59;;;;;;;28.10;8.00;;;20.80;99.90;;;;;;5078305;28;20197;-74
2021/12/03 06:01:29;;;;;;;28.60;7.32;;;20.80;99.90;;;;;;5073198;28;20194;-73
2021/12/03 06:04:00;;;;;;;26.92;7.53;;;20.90;99.90;;;;;;5082476;28;20269;-75
2021/12/03 06:06:31;;;;;;;28.17;7.95;;;20.90;99.90;;;;;;5075858;28;20213;-75
2021/12/03 06:09:04;;;;;;;25.13;7.53;;;20.90;99.90;;;;;;5077782;28;20201;-74
2021/12/03 06:11:34;;;;;;;25.42;6.75;;;20.80;99.90;;;;;;5072713;28;20250;-75
2021/12/03 06:14:05;;;;;;;23.83;6.70;;;20.70;99.90;;;;;;5078818;28;20193;-76
2021/12/03 06:16:36;;;;;;;24.63;7.40;;;20.60;99.90;;;;;;5073550;28;20638;-77
2021/12/03 06:19:07;;;;;;;20.50;7.03;;;20.60;99.90;;;;;;5080985;28;20637;-75
2021/12/03 06:21:38;;;;;;;27.15;7.53;;;20.60;99.90;;;;;;5075285;28;20196;-75
2021/12/03 06:24:11;;;;;;;28.52;7.43;;;20.50;99.90;;;;;;5078612;28;20216;-75
2021/12/03 06:26:41;;;;;;;21.85;7.15;;;20.50;99.90;;;;;;5075487;28;20196;-75
2021/12/03 06:29:12;;;;;;;24.35;6.85;;;20.50;99.90;;;;;;5074465;28;20221;-75
2021/12/03 06:31:43;;;;;;;24.58;7.00;;;20.50;99.90;;;;;;5074865;28;20242;-75
2021/12/03 06:34:17;;;;;;;25.27;6.70;;;20.50;99.90;;;;;;5075280;28;20723;-75
2021/12/03 06:36:47;;;;;;;22.80;6.82;;;20.50;99.90;;;;;;5074194;28;20197;-75
2021/12/03 06:39:21;;;;;;;28.80;7.15;;;20.50;99.90;;;;;;5074225;28;20181;-74
2021/12/03 06:41:52;;;;;;;28.90;6.70;;;20.40;99.90;;;;;;5081715;28;20700;-74
2021/12/03 06:44:23;;;;;;;25.00;6.97;;;20.40;99.90;;;;;;5087319;28;20223;-74
2021/12/03 06:46:54;;;;;;;22.95;6.05;;;20.30;99.90;;;;;;5080332;28;20236;-74
2021/12/03 06:49:25;;;;;;;28.40;6.78;;;20.30;99.90;;;;;;5088346;28;20204;-78
2021/12/03 06:52:00;;;;;;;24.55;6.70;;;20.30;99.90;;;;;;5083448;28;20196;-79
2021/12/03 06:54:33;;;;;;;24.88;7.25;;;20.30;99.90;;;;;;5080777;28;20196;-74
2021/12/03 06:57:08;;;;;;;27.15;6.65;;;20.20;99.90;;;;;;5080277;28;20204;-75
2021/12/03 06:59:41;;;;;;;22.60;6.28;;;20.20;99.90;;;;;;5079438;28;20188;-75
2021/12/03 07:02:17;;;;;;;26.58;7.75;;;20.30;99.90;;;;;;5078646;28;20189;-74
2021/12/03 07:04:51;;;;;;;26.83;6.53;;;20.30;99.90;;;;;;5081204;28;20192;-74
2021/12/03 07:07:22;;;;;;;29.05;7.22;;;20.30;99.90;;;;;;5082577;28;20292;-74
2021/12/03 07:09:58;;;;;;;39.28;10.25;;;20.40;99.90;;;;;;5081375;28;20341;-76
2021/12/03 07:12:29;;;;;;;32.20;6.30;;;20.40;99.90;;;;;;5082689;28;20211;-75
2021/12/03 07:15:00;;;;;;;28.70;6.53;;;20.40;99.90;;;;;;5091616;28;20199;-74
2021/12/03 07:17:33;;;;;;;27.02;6.68;;;20.30;99.90;;;;;;5075434;28;20189;-75
2021/12/03 07:20:05;;;;;;;30.13;7.22;;;20.30;99.90;;;;;;5080092;28;20192;-74
2021/12/03 07:22:36;;;;;;;27.55;5.97;;;20.30;99.90;;;;;;5082059;28;20531;-74
2021/12/03 07:25:10;;;;;;;32.72;8.65;;;20.30;99.90;;;;;;5082130;28;20219;-73
2021/12/03 07:27:41;;;;;;;26.00;7.80;;;20.20;99.90;;;;;;5077251;28;20591;-74
2021/12/03 07:30:15;;;;;;;28.23;6.47;;;20.20;99.90;;;;;;5082327;28;20558;-74
2021/12/03 07:32:54;;;;;;;26.00;6.63;;;20.20;99.90;;;;;;5086662;28;20195;-74
2021/12/03 07:35:37;;;;;;;27.83;5.93;;;20.10;99.90;;;;;;5083251;28;20553;-74
2021/12/03 07:38:08;;;;;;;28.02;6.22;;;20.10;99.90;;;;;;5074645;28;20280;-74
2021/12/03 07:40:41;;;;;;;29.05;9.73;;;20.10;99.90;;;;;;5084335;28;20185;-74
2021/12/03 07:43:12;;;;;;;28.58;7.90;;;20.00;99.90;;;;;;5087936;28;20208;-74
2021/12/03 07:45:46;;;;;;;29.75;6.25;;;20.00;99.90;;;;;;5075919;28;20216;-74
2021/12/03 07:48:21;;;;;;;25.77;5.40;;;20.00;99.90;;;;;;5086394;28;20205;-74
2021/12/03 07:50:52;;;;;;;23.27;5.57;;;20.00;99.90;;;;;;5079818;28;20207;-74
2021/12/03 07:53:25;;;;;;;24.08;5.55;;;20.00;99.90;;;;;;5077036;28;20184;-80
2021/12/03 07:55:58;;;;;;;29.02;5.45;;;19.90;99.90;;;;;;5080884;28;20649;-77
2021/12/03 07:58:28;;;;;;;22.35;4.95;;;19.90;99.90;;;;;;5084692;28;20185;-78
2021/12/03 08:00:59;;;;;;;21.02;5.10;;;19.90;99.90;;;;;;5081206;28;20648;-76
2021/12/03 08:03:30;;;;;;;25.20;4.63;;;19.90;99.90;;;;;;5081824;28;20695;-78
2021/12/03 08:06:06;;;;;;;18.95;5.10;;;19.80;99.90;;;;;;5085342;28;20185;-75
2021/12/03 08:08:41;;;;;;;20.50;5.03;;;19.70;99.90;;;;;;5079756;28;20257;-75
2021/12/03 08:11:14;;;;;;;16.40;4.68;;;19.70;99.90;;;;;;5076314;28;20249;-78
2021/12/03 08:13:44;;;;;;;25.92;5.22;;;19.70;99.90;;;;;;5080977;28;20196;-78
2021/12/03 08:16:15;;;;;;;19.67;4.65;;;19.60;99.90;;;;;;5085073;28;20259;-77
2021/12/03 08:18:48;;;;;;;15.70;4.75;;;19.60;99.90;;;;;;5077674;28;20188;-77
2021/12/03 08:21:19;;;;;;;18.85;5.30;;;19.50;99.90;;;;;;5077648;28;20668;-75
2021/12/03 08:23:50;;;;;;;23.92;4.80;;;19.50;99.90;;;;;;5082362;28;20581;-78
2021/12/03 08:26:22;;;;;;;21.02;4.82;;;19.50;99.90;;;;;;5086332;28;20196;-79
2021/12/03 08:28:53;;;;;;;14.70;4.80;;;19.40;99.90;;;;;;5078049;28;20192;-76
2021/12/03 08:31:24;;;;;;;16.02;4.80;;;19.50;99.90;;;;;;5079149;28;20541;-77
2021/12/03 08:33:55;;;;;;;19.88;5.05;;;19.50;99.90;;;;;;5078313;28;20731;-78
2021/12/03 08:36:25;;;;;;;21.15;5.20;;;19.50;99.90;;;;;;5082132;28;20246;-78
2021/12/03 08:38:56;;;;;;;13.65;4.65;;;19.50;99.90;;;;;;5085927;28;20188;-78
2021/12/03 08:41:29;;;;;;;14.70;4.57;;;19.40;99.90;;;;;;5082874;28;20224;-77
2021/12/03 08:44:02;;;;;;;15.68;4.45;;;19.30;99.90;;;;;;5082512;28;20294;-76
2021/12/03 08:46:35;;;;;;;13.77;4.25;;;19.30;99.90;;;;;;5079918;28;20216;-77
2021/12/03 08:49:08;;;;;;;13.82;4.90;;;19.30;99.90;;;;;;5076931;28;20217;-77
2021/12/03 08:51:54;;;;;;;15.02;4.57;;;19.30;99.90;;;;;;5085540;28;20187;-78
2021/12/03 08:57:12;;;;;;;19.25;4.68;;;19.30;99.90;;;;;;5081653;28;20554;-75
2021/12/03 08:59:43;;;;;;;16.55;4.10;;;19.30;99.90;;;;;;5086480;28;20205;-77
2021/12/03 09:02:17;;;;;;;15.65;4.90;;;19.20;99.90;;;;;;5073023;28;20193;-75
2021/12/03 09:04:48;;;;;;;22.52;4.60;;;19.30;99.90;;;;;;5074847;28;20213;-74
2021/12/03 09:07:19;;;;;;;17.30;5.13;;;19.30;99.90;;;;;;5084810;28;20253;-76
2021/12/03 09:09:50;;;;;;;19.23;4.78;;;19.30;99.90;;;;;;5073521;28;20185;-77
2021/12/03 09:12:23;;;;;;;19.15;4.53;;;19.30;99.90;;;;;;5073796;28;20196;-76
2021/12/03 09:14:55;;;;;;;17.77;4.50;;;19.30;99.90;;;;;;5076462;28;20184;-76
2021/12/03 09:17:44;;;;;;;17.58;4.50;;;19.30;99.90;;;;;;5072996;28;20185;-75
2021/12/03 09:20:36;;;;;;;15.52;4.50;;;19.30;99.90;;;;;;5076898;28;20219;-75
2021/12/03 09:23:10;;;;;;;15.85;4.45;;;19.30;99.90;;;;;;5082291;28;20188;-75
2021/12/03 09:25:48;;;;;;;15.32;4.50;;;19.30;99.90;;;;;;5073801;28;20186;-75
2021/12/03 09:28:22;;;;;;;19.27;4.20;;;19.30;99.90;;;;;;5073037;28;20645;-74
2021/12/03 09:30:53;;;;;;;21.65;4.82;;;19.20;99.90;;;;;;5076374;28;20180;-75
2021/12/03 09:33:27;;;;;;;20.52;5.07;;;19.20;99.90;;;;;;5072427;28;20181;-75
2021/12/03 09:36:01;;;;;;;19.08;4.55;;;19.20;99.90;;;;;;5072634;28;20232;-75
2021/12/03 09:38:33;;;;;;;16.50;4.95;;;19.30;99.90;;;;;;5077676;28;20185;-75
2021/12/03 09:41:08;;;;;;;17.98;4.80;;;19.30;99.90;;;;;;5079781;28;20236;-76
2021/12/03 09:43:43;;;;;;;17.67;4.45;;;19.20;99.90;;;;;;5072692;28;20302;-75
2021/12/03 09:46:16;;;;;;;12.07;4.05;;;19.30;99.90;;;;;;5072226;28;20282;-76
2021/12/03 09:49:12;;;;;;;23.00;4.80;;;19.30;99.90;;;;;;5080202;28;20553;-75
2021/12/03 09:51:52;;;;;;;19.70;4.38;;;19.30;99.90;;;;;;5072637;28;20240;-75
2021/12/03 09:54:29;;;;;;;14.82;3.90;;;19.30;99.90;;;;;;5089057;28;20197;-75
2021/12/03 09:57:04;;;;;;;21.88;4.78;;;19.30;99.90;;;;;;5072565;28;20196;-75
2021/12/03 10:02:39;;;;;;;20.73;4.30;;;19.30;99.90;;;;;;5079920;28;20192;-75
2021/12/03 10:13:46;;;;;;;19.15;4.35;;;19.30;99.90;;;;;;5086550;28;20204;-75
2021/12/03 10:19:24;;;;;;;21.38;4.00;;;19.30;99.90;;;;;;5076276;28;20578;-75
2021/12/03 10:22:21;;;;;;;17.52;4.28;;;19.20;99.90;;;;;;5078677;28;20188;-75
2021/12/03 10:25:08;;;;;;;19.65;4.10;;;19.20;99.90;;;;;;5078783;28;20277;-76
2021/12/03 10:30:45;;;;;;;18.38;3.67;;;19.40;99.90;;;;;;5067750;28;20188;-76
2021/12/03 10:33:42;;;;;;;18.63;3.95;;;19.40;99.90;;;;;;5095327;28;20541;-76
2021/12/03 10:39:28;;;;;;;21.90;4.43;;;19.40;99.90;;;;;;5084756;28;20278;-76
2021/12/03 10:42:08;;;;;;;20.23;3.72;;;19.40;99.90;;;;;;5083491;28;20687;-77
2021/12/03 10:44:59;;;;;;;18.25;4.22;;;19.50;99.90;;;;;;5076851;28;20213;-77
2021/12/03 10:47:42;;;;;;;18.63;3.55;;;19.50;99.90;;;;;;5079702;28;20193;-76
2021/12/03 10:50:38;;;;;;;20.83;4.30;;;19.50;99.90;;;;;;5075850;28;20254;-76
2021/12/03 10:53:24;;;;;;;21.70;3.60;;;19.50;99.90;;;;;;5075123;28;20200;-77
2021/12/03 11:02:22;;;;;;;15.90;3.60;;;19.50;99.90;;;;;;5074925;28;20181;-74
2021/12/03 11:28:18;;;;;;;16.67;3.88;;;19.40;99.90;;;;;;5077697;28;20196;-74
2021/12/03 11:34:01;;;;;;;17.63;3.60;;;19.50;99.90;;;;;;5074141;28;20200;-74
2021/12/03 12:25:13;;;;;;;15.95;3.35;;;19.20;99.90;;;;;;5093613;28;20238;-75
2021/12/03 12:43:15;;;;;;;10.55;2.83;;;19.30;99.90;;;;;;5093687;28;20567;-76
2021/12/03 13:09:13;;;;;;;10.35;2.30;;;19.40;99.90;;;;;;5074997;28;20329;-73
2021/12/03 13:20:54;;;;;;;11.45;2.30;;;19.20;99.90;;;;;;5081925;28;20197;-74
2021/12/03 13:24:10;;;;;;;8.60;2.38;;;19.20;99.90;;;;;;5072347;28;20543;-74
2021/12/03 14:01:19;;;;;;;11.18;2.05;;;19.10;99.90;;;;;;5103802;27;21031;-73
2021/12/03 14:41:56;;;;;;;14.13;3.00;;;18.90;99.90;;;;;;5039752;28;20198;-75
2021/12/03 14:44:31;;;;;;;15.35;2.70;;;18.90;99.90;;;;;;5093219;28;20551;-75
2021/12/03 14:53:33;;;;;;;14.88;2.55;;;19.00;99.90;;;;;;5045275;28;20560;-77
2021/12/03 14:56:09;;;;;;;12.45;2.50;;;19.10;99.90;;;;;;5085313;28;20197;-75
2021/12/03 14:58:49;;;;;;;13.77;2.65;;;19.10;99.90;;;;;;5082932;28;20718;-76
2021/12/03 15:01:26;;;;;;;16.52;2.75;;;19.00;99.90;;;;;;5083355;28;20197;-75
2021/12/03 15:07:08;;;;;;;11.38;2.58;;;19.10;99.90;;;;;;5077019;28;20281;-75
2021/12/03 15:09:42;;;;;;;14.00;2.65;;;19.00;99.90;;;;;;5083989;28;20283;-74
2021/12/03 15:23:33;;;;;;;21.25;3.60;;;19.00;99.90;;;;;;5026389;28;20206;-74
2021/12/03 15:26:15;;;;;;;15.18;4.40;;;18.90;99.90;;;;;;5072890;28;20575;-75
2021/12/03 15:31:46;;;;;;;25.75;6.30;;;18.90;99.90;;;;;;5064135;28;20335;-74
2021/12/03 15:34:34;;;;;;;19.17;5.40;;;18.90;99.90;;;;;;5071229;28;20185;-74
2021/12/03 15:37:19;;;;;;;24.85;5.72;;;18.90;99.90;;;;;;5061333;28;20201;-74
2021/12/03 15:40:04;;;;;;;24.80;6.75;;;18.90;99.90;;;;;;5068184;28;20248;-74
2021/12/03 15:56:58;;;;;;;21.38;5.00;;;18.90;99.90;;;;;;5072354;28;20204;-74
2021/12/03 16:05:11;;;;;;;18.23;4.43;;;18.90;99.90;;;;;;5069286;28;20200;-74
2021/12/03 16:10:31;;;;;;;14.50;3.55;;;18.90;99.90;;;;;;5074154;28;20223;-74
2021/12/03 16:13:12;;;;;;;13.45;3.40;;;18.80;99.90;;;;;;5065135;28;20659;-73
2021/12/03 16:16:21;;;;;;;20.20;3.83;;;18.90;99.90;;;;;;5062039;28;20272;-74
2021/12/03 16:44:20;;;;;;;16.00;3.17;;;19.00;99.90;;;;;;5067170;28;20628;-74
2021/12/03 16:47:01;;;;;;;13.57;3.05;;;19.00;99.90;;;;;;5065935;28;20225;-74
2021/12/03 16:52:29;;;;;;;15.18;3.25;;;18.90;99.90;;;;;;5069454;28;20664;-74
2021/12/03 16:55:02;;;;;;;16.30;3.45;;;18.90;99.90;;;;;;5069228;28;20189;-74
2021/12/03 16:57:34;;;;;;;20.55;3.50;;;18.90;99.90;;;;;;5069402;28;20185;-74
2021/12/03 17:00:17;;;;;;;16.67;3.00;;;18.90;99.90;;;;;;5063656;28;20233;-77
2021/12/03 17:02:50;;;;;;;17.67;3.05;;;18.80;99.90;;;;;;5070309;28;20192;-74
2021/12/03 17:05:39;;;;;;;16.95;3.47;;;18.80;99.90;;;;;;5067624;28;20231;-75
2021/12/03 17:08:38;;;;;;;18.02;3.28;;;18.80;99.90;;;;;;5059746;28;20186;-74
2021/12/03 17:14:21;;;;;;;13.45;3.25;;;18.80;99.90;;;;;;5023047;28;20248;-73
2021/12/03 17:45:47;;;;;;;17.63;2.83;;;18.80;99.90;;;;;;5064802;28;20223;-75
2021/12/03 17:48:39;;;;;;;18.13;3.00;;;18.80;99.90;;;;;;5070704;28;20674;-74
2021/12/03 17:54:10;;;;;;;14.13;2.70;;;18.80;99.90;;;;;;5046784;28;20189;-76
2021/12/03 17:56:43;;;;;;;16.38;2.50;;;18.80;99.90;;;;;;5060236;28;20184;-74
2021/12/03 17:59:18;;;;;;;16.50;2.88;;;18.80;99.90;;;;;;5072062;28;20272;-74
2021/12/03 18:01:53;;;;;;;14.55;2.60;;;18.80;99.90;;;;;;5061893;28;20191;-74
2021/12/03 18:07:20;;;;;;;12.73;2.30;;;18.80;99.90;;;;;;5063250;28;20205;-76
2021/12/03 18:10:05;;;;;;;14.73;2.72;;;18.80;99.90;;;;;;5060324;28;20272;-75
2021/12/03 18:52:28;;;;;;;10.00;1.98;;;18.70;99.90;;;;;;5065489;28;20189;-75
2021/12/03 18:55:03;;;;;;;7.47;1.73;;;18.70;99.90;;;;;;5063993;28;20202;-76
2021/12/03 18:57:40;;;;;;;9.80;1.70;;;18.70;99.90;;;;;;5065385;28;20194;-77
2021/12/03 19:00:15;;;;;;;8.75;1.98;;;18.70;99.90;;;;;;5064116;28;20247;-76
2021/12/03 19:02:50;;;;;;;7.38;1.92;;;18.70;99.90;;;;;;5069403;28;20193;-74
2021/12/03 19:05:29;;;;;;;12.50;2.00;;;18.70;99.90;;;;;;5074007;28;20644;-76
2021/12/03 19:08:06;;;;;;;8.10;1.92;;;18.70;99.90;;;;;;5071330;28;20193;-77
2021/12/03 19:10:44;;;;;;;7.43;1.77;;;18.80;99.90;;;;;;5069196;28;20284;-77
2021/12/03 19:13:18;;;;;;;8.63;1.65;;;18.80;99.90;;;;;;5063248;28;20190;-75
2021/12/03 19:15:50;;;;;;;4.95;1.17;;;18.80;99.90;;;;;;5065924;28;20192;-77
2021/12/03 19:18:23;;;;;;;4.75;1.50;;;18.80;99.90;;;;;;5063821;28;20634;-74
2021/12/03 19:20:54;;;;;;;4.70;1.55;;;18.80;99.90;;;;;;5064262;28;20295;-75
2021/12/03 19:23:25;;;;;;;7.50;1.50;;;18.90;99.90;;;;;;5067615;28;20554;-74
2021/12/03 19:25:55;;;;;;;5.22;1.50;;;18.90;99.90;;;;;;5074126;28;20191;-73
2021/12/03 19:28:26;;;;;;;4.90;1.60;;;18.90;99.90;;;;;;5068448;28;20193;-74
2021/12/03 19:30:58;;;;;;;4.90;1.75;;;18.90;99.90;;;;;;5069276;28;20195;-74
2021/12/03 19:33:30;;;;;;;5.63;1.60;;;18.80;99.90;;;;;;5067693;28;20720;-73
2021/12/03 19:36:01;;;;;;;5.20;1.50;;;18.80;99.90;;;;;;5074745;28;20239;-74
2021/12/03 19:38:35;;;;;;;3.88;1.38;;;18.80;99.90;;;;;;5074205;28;20189;-75
2021/12/03 19:41:12;;;;;;;4.18;1.50;;;18.70;99.90;;;;;;5065565;28;20640;-74
2021/12/03 19:43:45;;;;;;;5.45;1.50;;;18.80;99.90;;;;;;5069017;28;20221;-74
2021/12/03 19:46:20;;;;;;;3.88;1.20;;;18.80;99.90;;;;;;5068877;28;20221;-77
2021/12/03 19:49:01;;;;;;;2.33;1.13;;;18.80;99.90;;;;;;5074673;28;20268;-75
2021/12/03 19:51:35;;;;;;;4.10;1.20;;;18.80;99.90;;;;;;5071080;28;20198;-76
2021/12/03 19:54:06;;;;;;;3.40;1.00;;;18.80;99.90;;;;;;5063082;28;20205;-77
2021/12/03 19:56:38;;;;;;;1.88;0.80;;;18.80;99.90;;;;;;5066373;28;20237;-77
2021/12/03 19:59:09;;;;;;;4.38;1.10;;;18.80;99.90;;;;;;5065534;28;20225;-76
2021/12/03 20:01:40;;;;;;;3.42;0.98;;;18.70;99.90;;;;;;5062855;28;20584;-78
2021/12/03 20:04:14;;;;;;;2.95;1.02;;;18.70;99.90;;;;;;5063295;28;20198;-76
2021/12/03 20:06:46;;;;;;;3.05;0.93;;;18.80;99.90;;;;;;5065486;28;20219;-75
2021/12/03 20:09:20;;;;;;;2.30;0.80;;;18.80;99.90;;;;;;5072349;28;20192;-78
2021/12/03 20:11:53;;;;;;;2.20;0.90;;;18.80;99.90;;;;;;5064222;28;20592;-76
2021/12/03 20:14:24;;;;;;;2.25;0.85;;;18.80;99.90;;;;;;5066176;28;20219;-77
2021/12/03 20:16:58;;;;;;;2.47;0.80;;;18.80;99.90;;;;;;5072099;28;20201;-77
2021/12/03 20:19:34;;;;;;;3.45;1.00;;;18.80;99.90;;;;;;5073459;28;20313;-74
2021/12/03 20:22:11;;;;;;;2.97;1.10;;;18.80;99.90;;;;;;5066600;28;20189;-76
2021/12/03 20:27:39;;;;;;;4.10;1.10;;;18.90;99.90;;;;;;5055847;28;20201;-77
2021/12/03 20:30:16;;;;;;;2.35;0.98;;;18.90;99.90;;;;;;5069064;28;20695;-76
2021/12/03 20:33:02;;;;;;;3.15;0.80;;;18.90;99.90;;;;;;5067997;28;20193;-77
2021/12/03 20:38:24;;;;;;;2.58;1.05;;;19.00;99.90;;;;;;5073653;28;20227;-74
2021/12/03 20:40:58;;;;;;;1.25;0.90;;;19.00;99.90;;;;;;5067726;28;20214;-75
2021/12/03 20:43:40;;;;;;;3.35;1.20;;;19.10;99.90;;;;;;5069681;28;20217;-77
2021/12/03 20:46:22;;;;;;;2.72;1.05;;;19.20;99.90;;;;;;5064471;28;20295;-76
2021/12/03 20:49:09;;;;;;;3.13;1.00;;;19.20;99.90;;;;;;5067587;28;20220;-74
2021/12/03 20:54:36;;;;;;;1.73;0.90;;;19.30;99.90;;;;;;5057706;28;20194;-74
2021/12/03 21:08:33;;;;;;;3.22;1.00;;;19.40;99.90;;;;;;5062040;28;20189;-77
2021/12/03 21:11:06;;;;;;;2.50;1.02;;;19.50;99.90;;;;;;5060790;28;20196;-76
2021/12/03 21:13:39;;;;;;;2.70;1.00;;;19.60;99.90;;;;;;5061048;28;20281;-77
2021/12/03 21:16:27;;;;;;;2.17;0.80;;;19.70;99.90;;;;;;5063950;28;20189;-74
2021/12/03 21:19:10;;;;;;;3.90;0.90;;;19.70;99.90;;;;;;5067010;28;20277;-74